Dewees Island, South Carolina
Current Conditions -  °F | °C
As of 3:56 PM on Tuesday 27 Jan 2015 (Local Time) from KCHS Reporting Station
Scattered Clouds Scattered Clouds  
Wind Chill: 11°   Ceiling: Unl
Heat Index: 11°   Visibility: 10mi
Dew Point: -4°   Wind: 13mph
Humidity: 36%   Direction: 340°NNW
Pressure: 29.88"   Gusts: 22mph
Location:  32.8046°N, 79.7534°W
Report Text: KCHS 272056Z 34011G19KT 10SM SCT060 11/M04 A2988 RMK AO2 SLP116 T01061039 53008
Loading
Personal Weather Stations






























Interactive Weather Map New forecast layout! Learn more

10-Day Weather Forecast

Advertisements
Track Severe Weather on mobile